Terminal Aerodrome Forecast
Issued by NWS Cleveland, OH

Home | Current Version | Previous Version | Text Only | Print | Product List | Glossary Off
Versions: 1 2 3 4 5 6 7 8 9 10 11 12 13 14 15 16 17 18 19 20 21 22 23 24 25 26

103
FTUS41 KCLE 012342
TAFERI
TAF
KERI 012342Z 0200/0224 03007KT 2SM BR OVC004
     FM020300 05007KT 6SM BR OVC008
     FM020700 05004KT 3SM -SHRA BR OVC008
     FM021200 36007KT 1SM BR OVC002
     FM021600 36007KT 3SM BR OVC008
     FM022100 02007KT P6SM OVC012=

USA.gov is the U.S. government's official web portal to all federal, state and local government web resources and services.